sensor_id;sensor_type;location;lat;lon;timestamp;P1;durP1;ratioP1;P2;durP2;ratioP2
56477;SDS011;42382;53.210;5.772;2023-02-08T09:23:50;26.55;;;15.75;;
56477;SDS011;42382;53.210;5.772;2023-02-08T09:36:00;23.67;;;15.95;;
56477;SDS011;42382;53.210;5.772;2023-02-08T09:38:26;20.40;;;14.13;;
56477;SDS011;42382;53.210;5.772;2023-02-08T09:46:35;21.10;;;12.85;;
56477;SDS011;42382;53.210;5.772;2023-02-08T09:49:05;18.27;;;12.80;;
56477;SDS011;42382;53.210;5.772;2023-02-08T09:51:42;16.58;;;11.88;;
56477;SDS011;42382;53.210;5.772;2023-02-08T09:54:19;19.85;;;12.38;;
56477;SDS011;42382;53.210;5.772;2023-02-08T09:56:50;18.13;;;12.73;;
56477;SDS011;42382;53.210;5.772;2023-02-08T09:59:24;16.55;;;11.90;;
56477;SDS011;42382;53.210;5.772;2023-02-08T11:48:49;23.95;;;12.25;;
56477;SDS011;42382;53.210;5.772;2023-02-08T11:51:27;18.42;;;11.15;;
56477;SDS011;42382;53.210;5.772;2023-02-08T11:53:58;17.60;;;11.13;;
56477;SDS011;42382;53.210;5.772;2023-02-08T11:56:31;20.50;;;10.95;;
56477;SDS011;42382;53.210;5.772;2023-02-08T11:59:00;17.40;;;10.18;;
56477;SDS011;42382;53.210;5.772;2023-02-08T12:01:40;20.23;;;11.60;;
56477;SDS011;42382;53.210;5.772;2023-02-08T12:04:07;23.88;;;10.57;;
56477;SDS011;42382;53.210;5.772;2023-02-08T12:11:45;17.52;;;11.07;;
56477;SDS011;42382;53.210;5.772;2023-02-08T12:22:23;15.00;;;9.27;;
56477;SDS011;42382;53.210;5.772;2023-02-08T12:25:03;17.60;;;9.48;;
56477;SDS011;42382;53.210;5.772;2023-02-08T12:27:57;18.00;;;9.95;;
56477;SDS011;42382;53.210;5.772;2023-02-08T12:41:39;14.38;;;8.27;;
56477;SDS011;42382;53.210;5.772;2023-02-08T12:46:43;13.88;;;8.68;;
56477;SDS011;42382;53.210;5.772;2023-02-08T12:51:57;14.85;;;8.73;;
56477;SDS011;42382;53.210;5.772;2023-02-08T12:56:56;15.60;;;8.98;;
56477;SDS011;42382;53.210;5.772;2023-02-08T12:59:32;14.10;;;7.97;;
56477;SDS011;42382;53.210;5.772;2023-02-08T13:02:01;11.65;;;7.55;;
56477;SDS011;42382;53.210;5.772;2023-02-08T13:04:33;12.55;;;8.13;;
56477;SDS011;42382;53.210;5.772;2023-02-08T13:07:03;13.00;;;7.55;;
56477;SDS011;42382;53.210;5.772;2023-02-08T13:12:22;9.77;;;7.03;;
56477;SDS011;42382;53.210;5.772;2023-02-08T13:15:02;12.63;;;7.90;;
56477;SDS011;42382;53.210;5.772;2023-02-08T13:17:30;10.50;;;7.13;;
56477;SDS011;42382;53.210;5.772;2023-02-08T13:20:01;14.52;;;7.93;;
56477;SDS011;42382;53.210;5.772;2023-02-08T13:22:32;11.35;;;7.15;;
56477;SDS011;42382;53.210;5.772;2023-02-08T13:24:59;14.23;;;8.13;;
56477;SDS011;42382;53.210;5.772;2023-02-08T13:27:26;13.45;;;8.02;;
56477;SDS011;42382;53.210;5.772;2023-02-08T13:29:52;12.20;;;7.22;;
56477;SDS011;42382;53.210;5.772;2023-02-08T13:32:28;14.27;;;7.15;;
56477;SDS011;42382;53.210;5.772;2023-02-08T13:34:57;12.32;;;7.75;;
56477;SDS011;42382;53.210;5.772;2023-02-08T13:37:29;12.13;;;7.63;;
56477;SDS011;42382;53.210;5.772;2023-02-08T13:39:58;14.32;;;8.07;;
56477;SDS011;42382;53.210;5.772;2023-02-08T13:42:26;14.13;;;7.25;;
56477;SDS011;42382;53.210;5.772;2023-02-08T13:44:54;11.23;;;7.10;;
56477;SDS011;42382;53.210;5.772;2023-02-08T13:47:25;13.30;;;7.88;;
56477;SDS011;42382;53.210;5.772;2023-02-08T13:49:56;12.20;;;7.22;;
56477;SDS011;42382;53.210;5.772;2023-02-08T13:57:51;11.60;;;6.88;;
56477;SDS011;42382;53.210;5.772;2023-02-08T14:00:25;12.55;;;6.47;;
56477;SDS011;42382;53.210;5.772;2023-02-08T14:05:34;11.18;;;6.70;;
56477;SDS011;42382;53.210;5.772;2023-02-08T14:08:00;13.13;;;7.63;;
56477;SDS011;42382;53.210;5.772;2023-02-08T14:10:31;11.02;;;6.68;;
56477;SDS011;42382;53.210;5.772;2023-02-08T14:13:02;14.10;;;8.20;;
56477;SDS011;42382;53.210;5.772;2023-02-08T14:15:34;9.30;;;6.60;;
56477;SDS011;42382;53.210;5.772;2023-02-08T14:18:01;13.82;;;6.72;;
56477;SDS011;42382;53.210;5.772;2023-02-08T14:20:54;12.18;;;6.82;;
56477;SDS011;42382;53.210;5.772;2023-02-08T14:23:21;12.35;;;6.90;;
56477;SDS011;42382;53.210;5.772;2023-02-08T14:25:48;10.57;;;6.90;;
56477;SDS011;42382;53.210;5.772;2023-02-08T14:28:22;11.43;;;6.55;;
56477;SDS011;42382;53.210;5.772;2023-02-08T14:30:50;11.70;;;6.97;;
56477;SDS011;42382;53.210;5.772;2023-02-08T14:33:18;12.82;;;7.00;;
56477;SDS011;42382;53.210;5.772;2023-02-08T14:35:51;11.25;;;7.32;;
56477;SDS011;42382;53.210;5.772;2023-02-08T14:45:54;10.70;;;6.22;;
56477;SDS011;42382;53.210;5.772;2023-02-08T14:48:25;11.88;;;6.30;;
56477;SDS011;42382;53.210;5.772;2023-02-08T14:53:43;13.40;;;6.60;;
56477;SDS011;42382;53.210;5.772;2023-02-08T14:56:15;10.68;;;5.90;;
56477;SDS011;42382;53.210;5.772;2023-02-08T14:58:45;10.73;;;6.22;;
56477;SDS011;42382;53.210;5.772;2023-02-08T15:01:18;9.43;;;6.32;;
56477;SDS011;42382;53.210;5.772;2023-02-08T15:03:45;9.68;;;6.43;;
56477;SDS011;42382;53.210;5.772;2023-02-08T15:08:38;10.73;;;6.45;;
56477;SDS011;42382;53.210;5.772;2023-02-08T15:11:04;10.57;;;6.32;;
56477;SDS011;42382;53.210;5.772;2023-02-08T15:13:30;10.23;;;6.35;;
56477;SDS011;42382;53.210;5.772;2023-02-08T15:15:56;14.35;;;6.45;;
56477;SDS011;42382;53.210;5.772;2023-02-08T15:18:24;10.43;;;6.50;;
56477;SDS011;42382;53.210;5.772;2023-02-08T15:20:57;9.63;;;5.75;;
56477;SDS011;42382;53.210;5.772;2023-02-08T15:23:23;14.05;;;7.72;;
56477;SDS011;42382;53.210;5.772;2023-02-08T15:28:28;12.52;;;7.40;;
56477;SDS011;42382;53.210;5.772;2023-02-08T15:30:56;13.85;;;6.70;;
56477;SDS011;42382;53.210;5.772;2023-02-08T15:33:22;11.65;;;6.60;;
56477;SDS011;42382;53.210;5.772;2023-02-08T15:36:02;11.38;;;6.13;;
56477;SDS011;42382;53.210;5.772;2023-02-08T15:38:29;12.75;;;6.60;;
56477;SDS011;42382;53.210;5.772;2023-02-08T15:41:00;10.73;;;6.07;;
56477;SDS011;42382;53.210;5.772;2023-02-08T15:43:26;13.25;;;6.15;;
56477;SDS011;42382;53.210;5.772;2023-02-08T15:45:56;11.38;;;5.65;;
56477;SDS011;42382;53.210;5.772;2023-02-08T15:48:22;12.77;;;6.55;;
56477;SDS011;42382;53.210;5.772;2023-02-08T15:50:49;9.55;;;5.60;;
56477;SDS011;42382;53.210;5.772;2023-02-08T15:53:15;11.93;;;6.20;;
56477;SDS011;42382;53.210;5.772;2023-02-08T15:55:46;13.45;;;6.43;;
56477;SDS011;42382;53.210;5.772;2023-02-08T16:00:58;11.88;;;5.65;;
56477;SDS011;42382;53.210;5.772;2023-02-08T16:03:24;10.50;;;6.40;;
56477;SDS011;42382;53.210;5.772;2023-02-08T16:05:53;11.30;;;5.50;;
56477;SDS011;42382;53.210;5.772;2023-02-08T16:08:21;13.85;;;5.80;;
56477;SDS011;42382;53.210;5.772;2023-02-08T16:10:50;11.07;;;5.72;;
56477;SDS011;42382;53.210;5.772;2023-02-08T16:13:24;9.68;;;4.90;;
56477;SDS011;42382;53.210;5.772;2023-02-08T16:15:51;11.80;;;5.50;;
56477;SDS011;42382;53.210;5.772;2023-02-08T16:18:38;13.15;;;6.07;;
56477;SDS011;42382;53.210;5.772;2023-02-08T16:21:06;13.52;;;5.50;;
56477;SDS011;42382;53.210;5.772;2023-02-08T16:23:46;9.02;;;4.88;;
56477;SDS011;42382;53.210;5.772;2023-02-08T16:26:20;11.95;;;5.32;;
56477;SDS011;42382;53.210;5.772;2023-02-08T16:29:00;11.32;;;5.60;;
56477;SDS011;42382;53.210;5.772;2023-02-08T16:31:27;9.43;;;5.63;;
56477;SDS011;42382;53.210;5.772;2023-02-08T16:34:36;10.45;;;4.80;;
56477;SDS011;42382;53.210;5.772;2023-02-08T16:36:48;8.23;;;4.82;;
56477;SDS011;42382;53.210;5.772;2023-02-08T16:44:26;7.03;;;4.30;;
56477;SDS011;42382;53.210;5.772;2023-02-08T16:46:53;8.43;;;4.90;;
56477;SDS011;42382;53.210;5.772;2023-02-08T16:49:19;10.85;;;4.80;;
56477;SDS011;42382;53.210;5.772;2023-02-08T16:51:45;10.70;;;5.60;;
56477;SDS011;42382;53.210;5.772;2023-02-08T16:54:12;12.10;;;5.88;;
56477;SDS011;42382;53.210;5.772;2023-02-08T16:56:39;9.40;;;4.93;;
56477;SDS011;42382;53.210;5.772;2023-02-08T16:59:06;10.48;;;5.38;;
56477;SDS011;42382;53.210;5.772;2023-02-08T17:01:32;11.23;;;5.30;;
56477;SDS011;42382;53.210;5.772;2023-02-08T17:03:58;11.43;;;5.45;;
56477;SDS011;42382;53.210;5.772;2023-02-08T17:08:57;9.63;;;5.60;;
56477;SDS011;42382;53.210;5.772;2023-02-08T17:11:23;11.35;;;5.75;;
56477;SDS011;42382;53.210;5.772;2023-02-08T17:13:50;11.52;;;5.70;;
56477;SDS011;42382;53.210;5.772;2023-02-08T17:16:26;15.45;;;7.45;;
56477;SDS011;42382;53.210;5.772;2023-02-08T17:18:53;15.43;;;7.10;;
56477;SDS011;42382;53.210;5.772;2023-02-08T17:21:20;18.10;;;7.18;;
56477;SDS011;42382;53.210;5.772;2023-02-08T17:23:46;16.80;;;7.55;;
56477;SDS011;42382;53.210;5.772;2023-02-08T17:28:51;17.95;;;8.07;;
56477;SDS011;42382;53.210;5.772;2023-02-08T17:31:17;34.90;;;12.13;;
56477;SDS011;42382;53.210;5.772;2023-02-08T17:33:43;27.85;;;10.15;;
56477;SDS011;42382;53.210;5.772;2023-02-08T17:36:09;14.02;;;6.70;;
56477;SDS011;42382;53.210;5.772;2023-02-08T17:38:37;11.25;;;5.63;;
56477;SDS011;42382;53.210;5.772;2023-02-08T17:41:04;11.95;;;5.70;;
56477;SDS011;42382;53.210;5.772;2023-02-08T17:43:31;12.10;;;5.55;;
56477;SDS011;42382;53.210;5.772;2023-02-08T17:45:56;9.90;;;5.22;;
56477;SDS011;42382;53.210;5.772;2023-02-08T17:48:22;11.48;;;6.03;;
56477;SDS011;42382;53.210;5.772;2023-02-08T17:50:48;9.45;;;5.30;;
56477;SDS011;42382;53.210;5.772;2023-02-08T17:53:16;13.38;;;6.28;;
56477;SDS011;42382;53.210;5.772;2023-02-08T17:55:43;12.10;;;5.45;;
56477;SDS011;42382;53.210;5.772;2023-02-08T17:58:09;10.40;;;5.47;;
56477;SDS011;42382;53.210;5.772;2023-02-08T18:00:35;11.25;;;5.30;;
56477;SDS011;42382;53.210;5.772;2023-02-08T18:03:01;10.02;;;5.63;;
56477;SDS011;42382;53.210;5.772;2023-02-08T18:05:27;17.70;;;6.82;;
56477;SDS011;42382;53.210;5.772;2023-02-08T18:07:54;13.77;;;6.47;;
56477;SDS011;42382;53.210;5.772;2023-02-08T18:10:21;14.65;;;6.60;;
56477;SDS011;42382;53.210;5.772;2023-02-08T18:12:48;13.85;;;6.93;;
56477;SDS011;42382;53.210;5.772;2023-02-08T18:15:15;13.13;;;6.60;;
56477;SDS011;42382;53.210;5.772;2023-02-08T18:17:43;15.85;;;6.53;;
56477;SDS011;42382;53.210;5.772;2023-02-08T18:20:11;19.50;;;7.97;;
56477;SDS011;42382;53.210;5.772;2023-02-08T18:22:40;15.50;;;7.63;;
56477;SDS011;42382;53.210;5.772;2023-02-08T18:25:07;16.83;;;7.15;;
56477;SDS011;42382;53.210;5.772;2023-02-08T18:27:33;17.50;;;7.00;;
56477;SDS011;42382;53.210;5.772;2023-02-08T18:30:00;20.63;;;8.07;;
56477;SDS011;42382;53.210;5.772;2023-02-08T18:32:25;16.80;;;6.93;;
56477;SDS011;42382;53.210;5.772;2023-02-08T18:34:52;15.95;;;6.97;;
56477;SDS011;42382;53.210;5.772;2023-02-08T18:37:19;14.35;;;6.35;;
56477;SDS011;42382;53.210;5.772;2023-02-08T18:39:46;13.95;;;6.57;;
56477;SDS011;42382;53.210;5.772;2023-02-08T18:42:12;14.73;;;7.10;;
56477;SDS011;42382;53.210;5.772;2023-02-08T18:44:38;15.00;;;6.70;;
56477;SDS011;42382;53.210;5.772;2023-02-08T18:47:05;13.80;;;6.65;;
56477;SDS011;42382;53.210;5.772;2023-02-08T18:49:31;17.25;;;7.57;;
56477;SDS011;42382;53.210;5.772;2023-02-08T18:51:59;14.65;;;7.10;;
56477;SDS011;42382;53.210;5.772;2023-02-08T18:54:25;12.98;;;6.35;;
56477;SDS011;42382;53.210;5.772;2023-02-08T18:56:51;11.68;;;5.53;;
56477;SDS011;42382;53.210;5.772;2023-02-08T18:59:19;13.90;;;5.90;;
56477;SDS011;42382;53.210;5.772;2023-02-08T19:01:45;11.45;;;5.25;;
56477;SDS011;42382;53.210;5.772;2023-02-08T19:04:11;13.95;;;6.15;;
56477;SDS011;42382;53.210;5.772;2023-02-08T19:06:37;12.80;;;5.90;;
56477;SDS011;42382;53.210;5.772;2023-02-08T19:09:03;10.90;;;5.82;;
56477;SDS011;42382;53.210;5.772;2023-02-08T19:11:32;13.43;;;6.45;;
56477;SDS011;42382;53.210;5.772;2023-02-08T19:14:04;11.80;;;5.97;;
56477;SDS011;42382;53.210;5.772;2023-02-08T19:16:32;12.75;;;6.75;;
56477;SDS011;42382;53.210;5.772;2023-02-08T19:18:59;16.20;;;7.35;;
56477;SDS011;42382;53.210;5.772;2023-02-08T19:21:25;16.67;;;6.55;;
56477;SDS011;42382;53.210;5.772;2023-02-08T19:23:52;17.25;;;7.03;;
56477;SDS011;42382;53.210;5.772;2023-02-08T19:26:25;15.07;;;6.72;;
56477;SDS011;42382;53.210;5.772;2023-02-08T19:28:53;17.35;;;7.05;;
56477;SDS011;42382;53.210;5.772;2023-02-08T19:31:22;13.20;;;6.45;;
56477;SDS011;42382;53.210;5.772;2023-02-08T19:33:49;13.55;;;6.30;;
56477;SDS011;42382;53.210;5.772;2023-02-08T19:38:44;13.68;;;6.68;;
56477;SDS011;42382;53.210;5.772;2023-02-08T19:41:15;11.27;;;5.43;;
56477;SDS011;42382;53.210;5.772;2023-02-08T19:43:42;11.30;;;5.45;;
56477;SDS011;42382;53.210;5.772;2023-02-08T19:46:09;13.07;;;5.95;;
56477;SDS011;42382;53.210;5.772;2023-02-08T19:48:39;13.93;;;6.30;;
56477;SDS011;42382;53.210;5.772;2023-02-08T19:51:05;16.77;;;5.97;;
56477;SDS011;42382;53.210;5.772;2023-02-08T19:53:31;11.55;;;5.75;;
56477;SDS011;42382;53.210;5.772;2023-02-08T20:22:56;12.00;;;5.78;;
56477;SDS011;42382;53.210;5.772;2023-02-08T20:25:22;9.65;;;6.20;;
56477;SDS011;42382;53.210;5.772;2023-02-08T20:27:51;13.88;;;6.60;;
56477;SDS011;42382;53.210;5.772;2023-02-08T20:30:17;8.57;;;5.40;;
56477;SDS011;42382;53.210;5.772;2023-02-08T20:32:42;11.45;;;6.47;;
56477;SDS011;42382;53.210;5.772;2023-02-08T20:35:09;11.70;;;6.05;;
56477;SDS011;42382;53.210;5.772;2023-02-08T20:37:35;9.10;;;5.30;;
56477;SDS011;42382;53.210;5.772;2023-02-08T20:40:01;10.77;;;5.50;;
56477;SDS011;42382;53.210;5.772;2023-02-08T20:42:27;10.13;;;5.63;;
56477;SDS011;42382;53.210;5.772;2023-02-08T20:44:53;11.00;;;6.13;;
56477;SDS011;42382;53.210;5.772;2023-02-08T20:47:19;9.77;;;5.80;;
56477;SDS011;42382;53.210;5.772;2023-02-08T20:49:48;10.75;;;5.72;;
56477;SDS011;42382;53.210;5.772;2023-02-08T20:52:14;9.82;;;5.53;;
56477;SDS011;42382;53.210;5.772;2023-02-08T20:54:41;8.80;;;5.40;;
56477;SDS011;42382;53.210;5.772;2023-02-08T20:57:11;9.95;;;5.45;;
56477;SDS011;42382;53.210;5.772;2023-02-08T20:59:42;7.38;;;4.90;;
56477;SDS011;42382;53.210;5.772;2023-02-08T21:02:14;10.48;;;5.10;;
56477;SDS011;42382;53.210;5.772;2023-02-08T21:04:42;8.85;;;4.72;;
56477;SDS011;42382;53.210;5.772;2023-02-08T21:07:08;8.60;;;5.28;;
56477;SDS011;42382;53.210;5.772;2023-02-08T21:09:34;9.52;;;5.28;;
56477;SDS011;42382;53.210;5.772;2023-02-08T21:11:59;10.05;;;5.57;;
56477;SDS011;42382;53.210;5.772;2023-02-08T21:14:25;9.50;;;5.32;;
56477;SDS011;42382;53.210;5.772;2023-02-08T21:16:51;8.35;;;5.70;;
56477;SDS011;42382;53.210;5.772;2023-02-08T21:19:20;13.57;;;5.78;;
56477;SDS011;42382;53.210;5.772;2023-02-08T21:21:50;11.05;;;6.05;;
56477;SDS011;42382;53.210;5.772;2023-02-08T21:24:17;11.88;;;5.82;;
56477;SDS011;42382;53.210;5.772;2023-02-08T21:26:43;10.45;;;6.38;;
56477;SDS011;42382;53.210;5.772;2023-02-08T21:29:08;11.43;;;5.40;;
56477;SDS011;42382;53.210;5.772;2023-02-08T21:31:35;7.70;;;4.70;;
56477;SDS011;42382;53.210;5.772;2023-02-08T21:34:01;8.63;;;5.28;;
56477;SDS011;42382;53.210;5.772;2023-02-08T21:36:27;9.93;;;5.80;;
56477;SDS011;42382;53.210;5.772;2023-02-08T21:38:53;11.07;;;5.22;;
56477;SDS011;42382;53.210;5.772;2023-02-08T21:41:21;12.25;;;5.40;;
56477;SDS011;42382;53.210;5.772;2023-02-08T21:43:52;9.05;;;5.45;;
56477;SDS011;42382;53.210;5.772;2023-02-08T21:46:20;9.63;;;5.38;;
56477;SDS011;42382;53.210;5.772;2023-02-08T21:48:46;8.98;;;5.22;;
56477;SDS011;42382;53.210;5.772;2023-02-08T21:51:31;9.13;;;5.28;;
56477;SDS011;42382;53.210;5.772;2023-02-08T21:54:17;10.50;;;5.57;;
56477;SDS011;42382;53.210;5.772;2023-02-08T21:57:02;9.43;;;5.35;;
56477;SDS011;42382;53.210;5.772;2023-02-08T21:59:28;9.35;;;5.30;;
56477;SDS011;42382;53.210;5.772;2023-02-08T22:02:00;11.82;;;5.45;;
56477;SDS011;42382;53.210;5.772;2023-02-08T22:04:26;10.32;;;5.18;;
56477;SDS011;42382;53.210;5.772;2023-02-08T22:06:52;8.23;;;4.90;;
56477;SDS011;42382;53.210;5.772;2023-02-08T22:09:19;8.90;;;5.60;;
56477;SDS011;42382;53.210;5.772;2023-02-08T22:11:46;12.18;;;5.43;;
56477;SDS011;42382;53.210;5.772;2023-02-08T22:14:13;11.93;;;6.00;;
56477;SDS011;42382;53.210;5.772;2023-02-08T22:16:39;11.20;;;5.72;;
56477;SDS011;42382;53.210;5.772;2023-02-08T22:19:05;11.32;;;5.20;;
56477;SDS011;42382;53.210;5.772;2023-02-08T22:21:32;9.05;;;5.90;;
56477;SDS011;42382;53.210;5.772;2023-02-08T22:23:58;10.73;;;5.65;;
56477;SDS011;42382;53.210;5.772;2023-02-08T22:26:24;10.82;;;5.75;;
56477;SDS011;42382;53.210;5.772;2023-02-08T22:28:51;11.63;;;5.65;;
56477;SDS011;42382;53.210;5.772;2023-02-08T22:31:18;11.75;;;5.85;;
56477;SDS011;42382;53.210;5.772;2023-02-08T22:33:44;11.82;;;5.90;;
56477;SDS011;42382;53.210;5.772;2023-02-08T22:36:09;9.20;;;5.15;;
56477;SDS011;42382;53.210;5.772;2023-02-08T22:38:36;11.52;;;5.70;;
56477;SDS011;42382;53.210;5.772;2023-02-08T22:41:08;8.10;;;4.88;;
56477;SDS011;42382;53.210;5.772;2023-02-08T22:43:35;11.10;;;5.25;;
56477;SDS011;42382;53.210;5.772;2023-02-08T22:46:01;10.85;;;5.80;;
56477;SDS011;42382;53.210;5.772;2023-02-08T22:48:27;9.43;;;5.13;;
56477;SDS011;42382;53.210;5.772;2023-02-08T22:50:53;9.10;;;5.45;;
56477;SDS011;42382;53.210;5.772;2023-02-08T22:53:18;11.02;;;5.43;;
56477;SDS011;42382;53.210;5.772;2023-02-08T22:55:48;11.43;;;5.38;;
56477;SDS011;42382;53.210;5.772;2023-02-08T22:58:17;13.75;;;6.35;;
56477;SDS011;42382;53.210;5.772;2023-02-08T23:00:44;10.48;;;6.15;;
56477;SDS011;42382;53.210;5.772;2023-02-08T23:03:12;11.32;;;5.95;;
56477;SDS011;42382;53.210;5.772;2023-02-08T23:05:45;9.43;;;5.82;;
56477;SDS011;42382;53.210;5.772;2023-02-08T23:08:13;12.38;;;5.40;;
56477;SDS011;42382;53.210;5.772;2023-02-08T23:10:40;10.55;;;5.50;;
56477;SDS011;42382;53.210;5.772;2023-02-08T23:13:06;13.80;;;5.78;;
56477;SDS011;42382;53.210;5.772;2023-02-08T23:15:34;11.73;;;6.22;;
56477;SDS011;42382;53.210;5.772;2023-02-08T23:18:01;8.35;;;5.47;;
56477;SDS011;42382;53.210;5.772;2023-02-08T23:20:27;10.93;;;6.00;;
56477;SDS011;42382;53.210;5.772;2023-02-08T23:22:53;10.40;;;5.80;;
56477;SDS011;42382;53.210;5.772;2023-02-08T23:25:19;12.38;;;5.75;;
56477;SDS011;42382;53.210;5.772;2023-02-08T23:27:45;9.57;;;5.28;;
